sensor_id;sensor_type;location;lat;lon;timestamp;P1;durP1;ratioP1;P2;durP2;ratioP2
28304;SDS011;15569;42.652;23.040;2024-03-23T00:55:53;24.05;;;9.68;;
28304;SDS011;15569;42.652;23.040;2024-03-23T00:58:19;22.85;;;9.60;;
28304;SDS011;15569;42.652;23.040;2024-03-23T01:00:44;21.20;;;8.77;;
28304;SDS011;15569;42.652;23.040;2024-03-23T01:03:10;22.17;;;10.30;;
28304;SDS011;15569;42.652;23.040;2024-03-23T01:05:35;23.45;;;9.40;;
28304;SDS011;15569;42.652;23.040;2024-03-23T01:08:00;20.67;;;8.48;;
28304;SDS011;15569;42.652;23.040;2024-03-23T01:10:27;25.15;;;8.63;;
28304;SDS011;15569;42.652;23.040;2024-03-23T01:12:52;20.42;;;9.63;;
28304;SDS011;15569;42.652;23.040;2024-03-23T01:15:18;21.35;;;8.23;;
28304;SDS011;15569;42.652;23.040;2024-03-23T01:17:43;18.65;;;9.00;;
28304;SDS011;15569;42.652;23.040;2024-03-23T01:20:08;20.48;;;9.85;;
28304;SDS011;15569;42.652;23.040;2024-03-23T01:22:34;18.08;;;8.82;;
28304;SDS011;15569;42.652;23.040;2024-03-23T01:24:59;34.38;;;12.80;;
28304;SDS011;15569;42.652;23.040;2024-03-23T01:27:25;31.23;;;13.23;;
28304;SDS011;15569;42.652;23.040;2024-03-23T01:29:50;32.58;;;10.10;;
28304;SDS011;15569;42.652;23.040;2024-03-23T01:32:17;22.08;;;9.30;;
28304;SDS011;15569;42.652;23.040;2024-03-23T01:34:43;21.67;;;8.40;;
28304;SDS011;15569;42.652;23.040;2024-03-23T01:37:09;24.55;;;9.57;;
28304;SDS011;15569;42.652;23.040;2024-03-23T01:39:34;29.70;;;9.65;;
28304;SDS011;15569;42.652;23.040;2024-03-23T01:42:00;29.33;;;10.13;;
28304;SDS011;15569;42.652;23.040;2024-03-23T01:44:25;25.45;;;9.68;;
28304;SDS011;15569;42.652;23.040;2024-03-23T01:46:50;26.65;;;9.90;;
28304;SDS011;15569;42.652;23.040;2024-03-23T01:49:16;35.38;;;10.90;;
28304;SDS011;15569;42.652;23.040;2024-03-23T01:51:42;24.95;;;10.32;;
28304;SDS011;15569;42.652;23.040;2024-03-23T01:54:08;26.80;;;11.73;;
28304;SDS011;15569;42.652;23.040;2024-03-23T01:56:34;29.85;;;10.63;;
28304;SDS011;15569;42.652;23.040;2024-03-23T01:59:03;45.55;;;12.13;;
28304;SDS011;15569;42.652;23.040;2024-03-23T02:01:29;34.85;;;12.13;;
28304;SDS011;15569;42.652;23.040;2024-03-23T02:03:55;32.67;;;11.30;;
28304;SDS011;15569;42.652;23.040;2024-03-23T02:06:20;28.15;;;10.20;;
28304;SDS011;15569;42.652;23.040;2024-03-23T02:08:47;36.97;;;10.13;;
28304;SDS011;15569;42.652;23.040;2024-03-23T02:11:13;29.00;;;10.98;;
28304;SDS011;15569;42.652;23.040;2024-03-23T02:13:38;26.60;;;10.32;;
28304;SDS011;15569;42.652;23.040;2024-03-23T02:16:04;31.88;;;11.25;;
28304;SDS011;15569;42.652;23.040;2024-03-23T02:18:30;27.77;;;9.32;;
28304;SDS011;15569;42.652;23.040;2024-03-23T02:20:56;24.50;;;10.88;;
28304;SDS011;15569;42.652;23.040;2024-03-23T02:23:21;29.58;;;10.45;;
28304;SDS011;15569;42.652;23.040;2024-03-23T02:25:47;23.73;;;8.90;;
28304;SDS011;15569;42.652;23.040;2024-03-23T02:28:12;36.85;;;10.35;;
28304;SDS011;15569;42.652;23.040;2024-03-23T02:30:37;26.48;;;10.23;;
28304;SDS011;15569;42.652;23.040;2024-03-23T02:33:03;26.95;;;9.48;;
28304;SDS011;15569;42.652;23.040;2024-03-23T02:35:29;27.05;;;9.25;;
28304;SDS011;15569;42.652;23.040;2024-03-23T02:37:54;20.77;;;8.02;;
28304;SDS011;15569;42.652;23.040;2024-03-23T02:40:21;31.13;;;9.90;;
28304;SDS011;15569;42.652;23.040;2024-03-23T02:42:48;34.70;;;8.80;;
28304;SDS011;15569;42.652;23.040;2024-03-23T02:45:13;22.58;;;9.95;;
28304;SDS011;15569;42.652;23.040;2024-03-23T02:47:38;22.98;;;9.07;;
28304;SDS011;15569;42.652;23.040;2024-03-23T02:50:04;16.70;;;8.25;;
28304;SDS011;15569;42.652;23.040;2024-03-23T02:52:30;15.45;;;7.40;;
28304;SDS011;15569;42.652;23.040;2024-03-23T02:54:55;21.48;;;7.93;;
28304;SDS011;15569;42.652;23.040;2024-03-23T02:57:21;22.33;;;7.93;;
28304;SDS011;15569;42.652;23.040;2024-03-23T02:59:47;18.73;;;8.00;;
28304;SDS011;15569;42.652;23.040;2024-03-23T03:02:13;33.88;;;8.25;;
28304;SDS011;15569;42.652;23.040;2024-03-23T03:04:38;22.08;;;8.35;;
28304;SDS011;15569;42.652;23.040;2024-03-23T03:07:04;23.63;;;8.90;;
28304;SDS011;15569;42.652;23.040;2024-03-23T03:09:29;19.05;;;8.93;;
28304;SDS011;15569;42.652;23.040;2024-03-23T03:11:55;29.77;;;7.57;;
28304;SDS011;15569;42.652;23.040;2024-03-23T03:14:20;17.35;;;8.30;;
28304;SDS011;15569;42.652;23.040;2024-03-23T03:16:46;22.92;;;9.02;;
28304;SDS011;15569;42.652;23.040;2024-03-23T03:19:11;25.42;;;8.07;;
28304;SDS011;15569;42.652;23.040;2024-03-23T03:21:36;22.35;;;8.15;;
28304;SDS011;15569;42.652;23.040;2024-03-23T03:24:03;25.83;;;8.55;;
28304;SDS011;15569;42.652;23.040;2024-03-23T03:26:28;26.38;;;8.27;;
28304;SDS011;15569;42.652;23.040;2024-03-23T03:28:54;26.80;;;8.60;;
28304;SDS011;15569;42.652;23.040;2024-03-23T03:31:19;26.25;;;8.63;;
28304;SDS011;15569;42.652;23.040;2024-03-23T03:33:45;25.80;;;9.00;;
28304;SDS011;15569;42.652;23.040;2024-03-23T03:36:11;21.23;;;8.73;;
28304;SDS011;15569;42.652;23.040;2024-03-23T03:38:36;26.52;;;9.10;;
28304;SDS011;15569;42.652;23.040;2024-03-23T03:41:03;30.92;;;8.82;;
28304;SDS011;15569;42.652;23.040;2024-03-23T03:43:28;21.20;;;8.02;;
28304;SDS011;15569;42.652;23.040;2024-03-23T03:45:54;26.65;;;8.82;;
28304;SDS011;15569;42.652;23.040;2024-03-23T03:48:21;31.67;;;9.63;;
28304;SDS011;15569;42.652;23.040;2024-03-23T03:50:46;33.08;;;10.05;;
28304;SDS011;15569;42.652;23.040;2024-03-23T03:53:11;19.80;;;8.75;;
28304;SDS011;15569;42.652;23.040;2024-03-23T03:55:37;33.28;;;9.38;;
28304;SDS011;15569;42.652;23.040;2024-03-23T03:58:02;25.95;;;8.52;;
28304;SDS011;15569;42.652;23.040;2024-03-23T04:00:28;26.45;;;8.82;;
28304;SDS011;15569;42.652;23.040;2024-03-23T04:02:53;27.60;;;9.85;;
28304;SDS011;15569;42.652;23.040;2024-03-23T04:05:19;37.55;;;10.15;;
28304;SDS011;15569;42.652;23.040;2024-03-23T04:07:45;44.95;;;11.25;;
28304;SDS011;15569;42.652;23.040;2024-03-23T04:10:10;31.10;;;9.90;;
28304;SDS011;15569;42.652;23.040;2024-03-23T04:12:36;30.38;;;12.02;;
28304;SDS011;15569;42.652;23.040;2024-03-23T04:15:01;23.13;;;10.73;;
28304;SDS011;15569;42.652;23.040;2024-03-23T04:17:29;31.67;;;10.68;;
28304;SDS011;15569;42.652;23.040;2024-03-23T04:22:25;30.08;;;10.75;;
28304;SDS011;15569;42.652;23.040;2024-03-23T04:24:54;37.88;;;11.27;;
28304;SDS011;15569;42.652;23.040;2024-03-23T04:27:20;27.52;;;11.52;;
28304;SDS011;15569;42.652;23.040;2024-03-23T04:29:51;31.05;;;9.60;;
28304;SDS011;15569;42.652;23.040;2024-03-23T04:32:23;40.00;;;10.38;;
28304;SDS011;15569;42.652;23.040;2024-03-23T04:34:48;31.20;;;10.60;;
28304;SDS011;15569;42.652;23.040;2024-03-23T04:37:13;29.88;;;10.32;;
28304;SDS011;15569;42.652;23.040;2024-03-23T04:39:39;55.33;;;11.68;;
28304;SDS011;15569;42.652;23.040;2024-03-23T04:42:04;40.05;;;12.25;;
28304;SDS011;15569;42.652;23.040;2024-03-23T04:44:30;40.58;;;11.77;;
28304;SDS011;15569;42.652;23.040;2024-03-23T04:46:56;38.97;;;12.15;;
28304;SDS011;15569;42.652;23.040;2024-03-23T04:49:22;28.55;;;10.63;;
28304;SDS011;15569;42.652;23.040;2024-03-23T04:51:48;33.50;;;11.40;;
28304;SDS011;15569;42.652;23.040;2024-03-23T04:54:13;42.20;;;13.10;;
28304;SDS011;15569;42.652;23.040;2024-03-23T04:56:38;28.25;;;11.07;;
28304;SDS011;15569;42.652;23.040;2024-03-23T04:59:04;33.28;;;10.30;;
28304;SDS011;15569;42.652;23.040;2024-03-23T05:01:33;30.05;;;11.35;;
28304;SDS011;15569;42.652;23.040;2024-03-23T05:03:58;36.72;;;12.68;;
28304;SDS011;15569;42.652;23.040;2024-03-23T05:06:24;41.78;;;11.75;;
28304;SDS011;15569;42.652;23.040;2024-03-23T05:08:50;39.53;;;13.15;;
28304;SDS011;15569;42.652;23.040;2024-03-23T05:11:16;48.83;;;13.10;;
28304;SDS011;15569;42.652;23.040;2024-03-23T05:13:42;43.13;;;12.55;;
28304;SDS011;15569;42.652;23.040;2024-03-23T05:16:07;46.15;;;14.05;;
28304;SDS011;15569;42.652;23.040;2024-03-23T05:18:33;39.33;;;14.20;;
28304;SDS011;15569;42.652;23.040;2024-03-23T05:20:59;34.60;;;14.10;;
28304;SDS011;15569;42.652;23.040;2024-03-23T05:23:25;28.55;;;12.00;;
28304;SDS011;15569;42.652;23.040;2024-03-23T05:25:51;39.80;;;14.05;;
28304;SDS011;15569;42.652;23.040;2024-03-23T05:28:19;28.33;;;11.43;;
28304;SDS011;15569;42.652;23.040;2024-03-23T05:30:52;21.92;;;9.82;;
28304;SDS011;15569;42.652;23.040;2024-03-23T05:33:19;43.90;;;13.80;;
28304;SDS011;15569;42.652;23.040;2024-03-23T05:35:45;43.58;;;14.93;;
28304;SDS011;15569;42.652;23.040;2024-03-23T05:38:11;38.55;;;14.00;;
28304;SDS011;15569;42.652;23.040;2024-03-23T05:40:36;31.40;;;13.25;;
28304;SDS011;15569;42.652;23.040;2024-03-23T05:43:05;23.27;;;9.35;;
28304;SDS011;15569;42.652;23.040;2024-03-23T05:45:31;17.30;;;6.65;;
28304;SDS011;15569;42.652;23.040;2024-03-23T05:47:56;23.25;;;6.30;;
28304;SDS011;15569;42.652;23.040;2024-03-23T05:50:22;12.15;;;5.68;;
28304;SDS011;15569;42.652;23.040;2024-03-23T05:52:48;15.55;;;6.43;;
28304;SDS011;15569;42.652;23.040;2024-03-23T05:55:14;18.33;;;5.57;;
28304;SDS011;15569;42.652;23.040;2024-03-23T05:57:39;16.05;;;6.15;;
28304;SDS011;15569;42.652;23.040;2024-03-23T06:00:05;15.68;;;5.65;;
28304;SDS011;15569;42.652;23.040;2024-03-23T06:02:35;14.75;;;7.00;;
28304;SDS011;15569;42.652;23.040;2024-03-23T06:05:00;25.48;;;6.72;;
28304;SDS011;15569;42.652;23.040;2024-03-23T06:07:36;12.85;;;7.30;;
28304;SDS011;15569;42.652;23.040;2024-03-23T06:10:02;24.02;;;8.55;;
28304;SDS011;15569;42.652;23.040;2024-03-23T06:12:27;18.63;;;8.75;;
28304;SDS011;15569;42.652;23.040;2024-03-23T06:14:52;20.02;;;8.02;;
28304;SDS011;15569;42.652;23.040;2024-03-23T06:17:18;21.15;;;8.60;;
28304;SDS011;15569;42.652;23.040;2024-03-23T06:19:43;35.35;;;13.43;;
28304;SDS011;15569;42.652;23.040;2024-03-23T06:22:09;27.50;;;12.93;;
28304;SDS011;15569;42.652;23.040;2024-03-23T06:24:34;18.08;;;8.10;;
28304;SDS011;15569;42.652;23.040;2024-03-23T06:26:59;26.05;;;9.77;;
28304;SDS011;15569;42.652;23.040;2024-03-23T06:29:25;22.00;;;7.70;;
28304;SDS011;15569;42.652;23.040;2024-03-23T06:31:53;23.10;;;7.15;;
28304;SDS011;15569;42.652;23.040;2024-03-23T06:34:19;17.65;;;6.60;;
28304;SDS011;15569;42.652;23.040;2024-03-23T06:36:48;16.77;;;7.30;;
28304;SDS011;15569;42.652;23.040;2024-03-23T06:39:14;26.40;;;8.02;;
28304;SDS011;15569;42.652;23.040;2024-03-23T06:41:50;26.05;;;8.20;;
28304;SDS011;15569;42.652;23.040;2024-03-23T06:44:17;22.77;;;7.13;;
28304;SDS011;15569;42.652;23.040;2024-03-23T06:46:43;22.20;;;8.68;;
28304;SDS011;15569;42.652;23.040;2024-03-23T06:49:09;23.15;;;8.35;;
28304;SDS011;15569;42.652;23.040;2024-03-23T06:51:35;18.60;;;7.65;;
28304;SDS011;15569;42.652;23.040;2024-03-23T06:54:00;28.67;;;9.45;;
28304;SDS011;15569;42.652;23.040;2024-03-23T06:56:25;28.45;;;8.73;;
28304;SDS011;15569;42.652;23.040;2024-03-23T06:58:51;28.90;;;9.20;;
28304;SDS011;15569;42.652;23.040;2024-03-23T07:01:16;19.90;;;8.57;;
28304;SDS011;15569;42.652;23.040;2024-03-23T07:03:41;17.88;;;8.48;;
28304;SDS011;15569;42.652;23.040;2024-03-23T07:06:13;20.52;;;8.73;;
28304;SDS011;15569;42.652;23.040;2024-03-23T07:08:38;37.63;;;10.18;;
28304;SDS011;15569;42.652;23.040;2024-03-23T07:11:03;33.78;;;9.75;;
28304;SDS011;15569;42.652;23.040;2024-03-23T07:13:29;28.67;;;9.23;;
28304;SDS011;15569;42.652;23.040;2024-03-23T07:15:55;22.30;;;9.60;;
28304;SDS011;15569;42.652;23.040;2024-03-23T07:18:21;33.50;;;11.02;;
28304;SDS011;15569;42.652;23.040;2024-03-23T07:20:56;22.77;;;9.10;;
28304;SDS011;15569;42.652;23.040;2024-03-23T07:23:22;31.15;;;10.55;;
28304;SDS011;15569;42.652;23.040;2024-03-23T07:26:00;30.05;;;10.50;;
28304;SDS011;15569;42.652;23.040;2024-03-23T07:28:27;30.60;;;11.27;;
28304;SDS011;15569;42.652;23.040;2024-03-23T07:31:06;23.90;;;9.23;;
28304;SDS011;15569;42.652;23.040;2024-03-23T07:33:45;28.77;;;9.30;;
28304;SDS011;15569;42.652;23.040;2024-03-23T07:36:11;27.05;;;8.73;;
28304;SDS011;15569;42.652;23.040;2024-03-23T07:38:40;27.85;;;8.45;;
28304;SDS011;15569;42.652;23.040;2024-03-23T07:41:06;22.75;;;9.00;;
28304;SDS011;15569;42.652;23.040;2024-03-23T07:43:32;24.60;;;8.00;;
28304;SDS011;15569;42.652;23.040;2024-03-23T07:45:59;19.42;;;6.68;;
28304;SDS011;15569;42.652;23.040;2024-03-23T07:48:25;19.67;;;6.90;;
28304;SDS011;15569;42.652;23.040;2024-03-23T07:51:00;19.10;;;7.53;;
28304;SDS011;15569;42.652;23.040;2024-03-23T07:53:30;30.63;;;7.25;;
28304;SDS011;15569;42.652;23.040;2024-03-23T07:56:04;28.83;;;7.82;;
28304;SDS011;15569;42.652;23.040;2024-03-23T07:58:31;18.48;;;7.10;;
28304;SDS011;15569;42.652;23.040;2024-03-23T08:00:56;13.57;;;7.13;;
28304;SDS011;15569;42.652;23.040;2024-03-23T08:03:28;18.60;;;7.05;;
28304;SDS011;15569;42.652;23.040;2024-03-23T08:05:53;15.88;;;6.00;;
28304;SDS011;15569;42.652;23.040;2024-03-23T08:08:19;16.58;;;5.95;;
28304;SDS011;15569;42.652;23.040;2024-03-23T08:10:51;16.67;;;5.63;;
28304;SDS011;15569;42.652;23.040;2024-03-23T08:13:17;19.98;;;6.22;;
28304;SDS011;15569;42.652;23.040;2024-03-23T08:15:43;22.00;;;7.22;;
28304;SDS011;15569;42.652;23.040;2024-03-23T08:18:12;12.40;;;5.03;;
28304;SDS011;15569;42.652;23.040;2024-03-23T08:20:38;16.33;;;6.53;;
28304;SDS011;15569;42.652;23.040;2024-03-23T08:23:05;9.43;;;5.35;;
28304;SDS011;15569;42.652;23.040;2024-03-23T08:25:31;24.73;;;6.05;;
28304;SDS011;15569;42.652;23.040;2024-03-23T08:27:57;11.45;;;6.10;;
28304;SDS011;15569;42.652;23.040;2024-03-23T08:30:22;11.60;;;5.10;;
28304;SDS011;15569;42.652;23.040;2024-03-23T08:32:48;16.90;;;6.45;;
28304;SDS011;15569;42.652;23.040;2024-03-23T08:35:13;11.82;;;5.80;;
28304;SDS011;15569;42.652;23.040;2024-03-23T08:37:39;16.58;;;7.82;;
28304;SDS011;15569;42.652;23.040;2024-03-23T08:40:04;12.75;;;6.95;;
28304;SDS011;15569;42.652;23.040;2024-03-23T08:42:30;18.90;;;6.47;;
28304;SDS011;15569;42.652;23.040;2024-03-23T08:44:55;13.52;;;5.38;;
28304;SDS011;15569;42.652;23.040;2024-03-23T08:47:21;14.27;;;4.78;;
28304;SDS011;15569;42.652;23.040;2024-03-23T08:49:46;10.23;;;4.97;;
28304;SDS011;15569;42.652;23.040;2024-03-23T08:52:12;8.20;;;4.15;;
28304;SDS011;15569;42.652;23.040;2024-03-23T08:54:37;12.27;;;4.80;;
28304;SDS011;15569;42.652;23.040;2024-03-23T08:57:02;8.00;;;5.07;;
28304;SDS011;15569;42.652;23.040;2024-03-23T08:59:28;8.57;;;4.45;;
28304;SDS011;15569;42.652;23.040;2024-03-23T09:01:53;15.48;;;5.40;;
28304;SDS011;15569;42.652;23.040;2024-03-23T09:04:19;11.20;;;5.35;;
28304;SDS011;15569;42.652;23.040;2024-03-23T09:06:44;7.82;;;5.15;;
28304;SDS011;15569;42.652;23.040;2024-03-23T09:09:10;9.27;;;5.63;;
28304;SDS011;15569;42.652;23.040;2024-03-23T09:11:35;12.98;;;4.78;;
28304;SDS011;15569;42.652;23.040;2024-03-23T09:14:02;6.57;;;4.40;;
28304;SDS011;15569;42.652;23.040;2024-03-23T09:16:28;7.13;;;4.43;;
28304;SDS011;15569;42.652;23.040;2024-03-23T09:18:55;6.10;;;3.92;;
28304;SDS011;15569;42.652;23.040;2024-03-23T09:21:24;4.70;;;3.70;;
28304;SDS011;15569;42.652;23.040;2024-03-23T09:23:49;8.25;;;4.15;;
28304;SDS011;15569;42.652;23.040;2024-03-23T09:26:14;6.00;;;3.28;;
28304;SDS011;15569;42.652;23.040;2024-03-23T09:28:40;6.03;;;3.60;;
28304;SDS011;15569;42.652;23.040;2024-03-23T09:31:06;7.15;;;3.80;;
28304;SDS011;15569;42.652;23.040;2024-03-23T09:33:39;7.07;;;3.40;;
28304;SDS011;15569;42.652;23.040;2024-03-23T09:36:04;7.78;;;4.05;;
28304;SDS011;15569;42.652;23.040;2024-03-23T09:38:31;5.40;;;3.58;;
28304;SDS011;15569;42.652;23.040;2024-03-23T09:40:56;5.95;;;3.97;;
28304;SDS011;15569;42.652;23.040;2024-03-23T09:43:22;7.65;;;3.50;;
28304;SDS011;15569;42.652;23.040;2024-03-23T09:45:48;18.60;;;13.38;;
28304;SDS011;15569;42.652;23.040;2024-03-23T09:48:14;9.15;;;4.85;;
28304;SDS011;15569;42.652;23.040;2024-03-23T09:50:41;7.57;;;3.47;;
28304;SDS011;15569;42.652;23.040;2024-03-23T09:53:09;11.90;;;3.72;;
28304;SDS011;15569;42.652;23.040;2024-03-23T09:55:36;4.15;;;3.13;;
28304;SDS011;15569;42.652;23.040;2024-03-23T09:58:02;5.95;;;3.00;;
28304;SDS011;15569;42.652;23.040;2024-03-23T10:00:28;6.18;;;2.60;;
28304;SDS011;15569;42.652;23.040;2024-03-23T10:02:56;4.30;;;2.42;;
28304;SDS011;15569;42.652;23.040;2024-03-23T10:05:27;5.38;;;2.80;;
28304;SDS011;15569;42.652;23.040;2024-03-23T10:07:53;6.65;;;2.58;;
28304;SDS011;15569;42.652;23.040;2024-03-23T10:10:19;4.88;;;2.60;;
28304;SDS011;15569;42.652;23.040;2024-03-23T10:12:46;6.53;;;3.67;;
28304;SDS011;15569;42.652;23.040;2024-03-23T10:15:22;4.17;;;2.80;;
28304;SDS011;15569;42.652;23.040;2024-03-23T10:17:49;6.72;;;3.22;;
28304;SDS011;15569;42.652;23.040;2024-03-23T10:20:23;5.53;;;2.53;;
28304;SDS011;15569;42.652;23.040;2024-03-23T10:22:49;3.33;;;2.40;;
28304;SDS011;15569;42.652;23.040;2024-03-23T10:25:16;3.95;;;2.78;;
28304;SDS011;15569;42.652;23.040;2024-03-23T10:27:42;6.15;;;2.70;;
28304;SDS011;15569;42.652;23.040;2024-03-23T10:30:17;4.72;;;2.50;;
28304;SDS011;15569;42.652;23.040;2024-03-23T10:32:42;4.72;;;2.38;;
28304;SDS011;15569;42.652;23.040;2024-03-23T10:37:41;9.10;;;3.03;;
28304;SDS011;15569;42.652;23.040;2024-03-23T10:40:09;6.68;;;3.33;;
28304;SDS011;15569;42.652;23.040;2024-03-23T10:42:36;9.00;;;4.18;;
28304;SDS011;15569;42.652;23.040;2024-03-23T10:45:03;6.28;;;3.22;;
28304;SDS011;15569;42.652;23.040;2024-03-23T10:47:29;4.03;;;2.20;;
28304;SDS011;15569;42.652;23.040;2024-03-23T10:49:55;6.47;;;4.22;;
28304;SDS011;15569;42.652;23.040;2024-03-23T10:52:20;9.15;;;2.80;;
28304;SDS011;15569;42.652;23.040;2024-03-23T10:54:46;4.47;;;2.70;;
28304;SDS011;15569;42.652;23.040;2024-03-23T10:57:15;3.60;;;2.53;;
28304;SDS011;15569;42.652;23.040;2024-03-23T10:59:46;4.47;;;2.30;;
28304;SDS011;15569;42.652;23.040;2024-03-23T11:02:18;6.70;;;2.42;;
28304;SDS011;15569;42.652;23.040;2024-03-23T11:04:45;5.13;;;2.22;;
28304;SDS011;15569;42.652;23.040;2024-03-23T11:09:57;4.57;;;2.85;;
28304;SDS011;15569;42.652;23.040;2024-03-23T11:14:50;3.47;;;2.40;;
28304;SDS011;15569;42.652;23.040;2024-03-23T11:17:20;4.72;;;3.67;;
28304;SDS011;15569;42.652;23.040;2024-03-23T11:19:56;6.22;;;3.08;;
28304;SDS011;15569;42.652;23.040;2024-03-23T11:22:39;4.60;;;2.10;;
28304;SDS011;15569;42.652;23.040;2024-03-23T11:28:10;8.85;;;2.45;;
28304;SDS011;15569;42.652;23.040;2024-03-23T11:30:36;7.50;;;4.72;;
28304;SDS011;15569;42.652;23.040;2024-03-23T11:33:05;7.57;;;2.88;;
28304;SDS011;15569;42.652;23.040;2024-03-23T11:38:14;3.00;;;1.95;;
28304;SDS011;15569;42.652;23.040;2024-03-23T11:40:47;5.22;;;2.83;;
28304;SDS011;15569;42.652;23.040;2024-03-23T11:43:17;7.45;;;2.08;;
28304;SDS011;15569;42.652;23.040;2024-03-23T11:45:44;3.75;;;2.58;;
28304;SDS011;15569;42.652;23.040;2024-03-23T11:48:15;3.65;;;2.30;;
28304;SDS011;15569;42.652;23.040;2024-03-23T11:50:45;6.18;;;1.38;;
28304;SDS011;15569;42.652;23.040;2024-03-23T11:55:41;2.35;;;1.90;;
28304;SDS011;15569;42.652;23.040;2024-03-23T11:58:07;5.18;;;2.70;;
28304;SDS011;15569;42.652;23.040;2024-03-23T12:00:33;2.40;;;1.92;;
28304;SDS011;15569;42.652;23.040;2024-03-23T12:03:02;5.00;;;3.47;;
28304;SDS011;15569;42.652;23.040;2024-03-23T12:05:27;15.50;;;2.95;;
28304;SDS011;15569;42.652;23.040;2024-03-23T12:07:54;4.03;;;2.35;;
28304;SDS011;15569;42.652;23.040;2024-03-23T12:10:19;5.10;;;2.47;;
28304;SDS011;15569;42.652;23.040;2024-03-23T12:12:45;8.07;;;2.72;;
28304;SDS011;15569;42.652;23.040;2024-03-23T12:15:10;5.00;;;2.83;;
28304;SDS011;15569;42.652;23.040;2024-03-23T12:17:37;6.75;;;2.83;;
28304;SDS011;15569;42.652;23.040;2024-03-23T12:20:03;3.72;;;2.72;;
28304;SDS011;15569;42.652;23.040;2024-03-23T12:22:29;4.47;;;2.47;;
28304;SDS011;15569;42.652;23.040;2024-03-23T12:24:55;3.17;;;2.10;;
28304;SDS011;15569;42.652;23.040;2024-03-23T12:27:21;5.80;;;3.30;;
28304;SDS011;15569;42.652;23.040;2024-03-23T12:29:47;5.32;;;2.95;;
28304;SDS011;15569;42.652;23.040;2024-03-23T12:32:13;3.33;;;2.50;;
28304;SDS011;15569;42.652;23.040;2024-03-23T12:34:39;4.28;;;2.42;;
28304;SDS011;15569;42.652;23.040;2024-03-23T12:37:05;3.55;;;2.58;;
28304;SDS011;15569;42.652;23.040;2024-03-23T12:39:33;6.97;;;4.53;;
28304;SDS011;15569;42.652;23.040;2024-03-23T12:42:00;7.10;;;5.47;;
28304;SDS011;15569;42.652;23.040;2024-03-23T12:44:25;5.43;;;2.65;;
28304;SDS011;15569;42.652;23.040;2024-03-23T12:46:51;12.50;;;5.80;;
28304;SDS011;15569;42.652;23.040;2024-03-23T12:49:16;8.80;;;4.80;;
28304;SDS011;15569;42.652;23.040;2024-03-23T12:51:52;11.68;;;6.80;;
28304;SDS011;15569;42.652;23.040;2024-03-23T12:54:20;7.07;;;3.22;;
28304;SDS011;15569;42.652;23.040;2024-03-23T12:56:45;4.80;;;4.05;;
28304;SDS011;15569;42.652;23.040;2024-03-23T12:59:11;8.43;;;4.00;;
28304;SDS011;15569;42.652;23.040;2024-03-23T13:01:38;4.85;;;3.42;;
28304;SDS011;15569;42.652;23.040;2024-03-23T13:04:03;29.95;;;15.80;;
28304;SDS011;15569;42.652;23.040;2024-03-23T13:06:29;10.10;;;3.42;;
28304;SDS011;15569;42.652;23.040;2024-03-23T13:08:58;14.57;;;2.70;;
28304;SDS011;15569;42.652;23.040;2024-03-23T13:11:24;5.75;;;3.33;;
28304;SDS011;15569;42.652;23.040;2024-03-23T13:13:50;6.88;;;2.92;;
28304;SDS011;15569;42.652;23.040;2024-03-23T13:16:16;6.90;;;4.13;;
28304;SDS011;15569;42.652;23.040;2024-03-23T13:18:41;9.52;;;6.47;;
28304;SDS011;15569;42.652;23.040;2024-03-23T13:21:07;4.80;;;2.83;;
28304;SDS011;15569;42.652;23.040;2024-03-23T13:23:32;5.07;;;2.38;;
28304;SDS011;15569;42.652;23.040;2024-03-23T13:26:00;7.03;;;2.80;;
28304;SDS011;15569;42.652;23.040;2024-03-23T13:28:26;6.20;;;3.47;;
28304;SDS011;15569;42.652;23.040;2024-03-23T13:30:52;3.75;;;2.47;;
28304;SDS011;15569;42.652;23.040;2024-03-23T13:33:18;6.40;;;3.75;;
28304;SDS011;15569;42.652;23.040;2024-03-23T13:35:50;7.65;;;4.13;;
28304;SDS011;15569;42.652;23.040;2024-03-23T13:38:16;9.30;;;5.53;;
28304;SDS011;15569;42.652;23.040;2024-03-23T13:40:49;6.30;;;3.30;;
28304;SDS011;15569;42.652;23.040;2024-03-23T13:43:24;4.82;;;2.90;;
28304;SDS011;15569;42.652;23.040;2024-03-23T13:45:54;5.20;;;2.85;;
28304;SDS011;15569;42.652;23.040;2024-03-23T13:48:25;5.70;;;3.13;;
28304;SDS011;15569;42.652;23.040;2024-03-23T13:51:04;8.73;;;2.55;;
28304;SDS011;15569;42.652;23.040;2024-03-23T13:53:30;6.40;;;2.95;;
28304;SDS011;15569;42.652;23.040;2024-03-23T13:55:57;5.70;;;3.28;;
28304;SDS011;15569;42.652;23.040;2024-03-23T13:58:23;4.90;;;3.40;;
28304;SDS011;15569;42.652;23.040;2024-03-23T14:00:51;5.90;;;2.92;;
28304;SDS011;15569;42.652;23.040;2024-03-23T14:03:17;4.57;;;2.72;;
28304;SDS011;15569;42.652;23.040;2024-03-23T14:05:45;6.13;;;3.28;;
28304;SDS011;15569;42.652;23.040;2024-03-23T14:08:12;3.85;;;3.25;;
28304;SDS011;15569;42.652;23.040;2024-03-23T14:10:40;9.00;;;2.65;;
28304;SDS011;15569;42.652;23.040;2024-03-23T14:13:06;6.10;;;3.15;;
28304;SDS011;15569;42.652;23.040;2024-03-23T14:15:31;3.67;;;2.88;;
28304;SDS011;15569;42.652;23.040;2024-03-23T14:17:57;4.25;;;3.05;;
28304;SDS011;15569;42.652;23.040;2024-03-23T14:20:23;4.32;;;3.38;;
28304;SDS011;15569;42.652;23.040;2024-03-23T14:22:49;5.78;;;2.92;;
28304;SDS011;15569;42.652;23.040;2024-03-23T14:25:14;3.83;;;3.00;;
28304;SDS011;15569;42.652;23.040;2024-03-23T14:27:40;5.95;;;3.38;;
28304;SDS011;15569;42.652;23.040;2024-03-23T14:30:06;4.85;;;2.90;;
28304;SDS011;15569;42.652;23.040;2024-03-23T14:32:31;4.07;;;2.78;;
28304;SDS011;15569;42.652;23.040;2024-03-23T14:35:02;5.05;;;2.88;;
28304;SDS011;15569;42.652;23.040;2024-03-23T14:37:28;5.97;;;3.03;;
28304;SDS011;15569;42.652;23.040;2024-03-23T14:39:55;3.50;;;2.42;;
28304;SDS011;15569;42.652;23.040;2024-03-23T14:44:49;4.40;;;2.97;;
28304;SDS011;15569;42.652;23.040;2024-03-23T14:47:14;4.90;;;3.22;;
28304;SDS011;15569;42.652;23.040;2024-03-23T14:49:40;6.57;;;2.90;;
28304;SDS011;15569;42.652;23.040;2024-03-23T14:52:06;5.63;;;2.80;;
28304;SDS011;15569;42.652;23.040;2024-03-23T14:54:32;7.88;;;3.22;;
28304;SDS011;15569;42.652;23.040;2024-03-23T14:56:57;4.45;;;3.17;;
28304;SDS011;15569;42.652;23.040;2024-03-23T14:59:23;4.22;;;2.63;;
28304;SDS011;15569;42.652;23.040;2024-03-23T15:01:49;5.10;;;2.60;;
28304;SDS011;15569;42.652;23.040;2024-03-23T15:04:14;3.35;;;2.92;;
28304;SDS011;15569;42.652;23.040;2024-03-23T15:06:40;6.05;;;3.05;;
28304;SDS011;15569;42.652;23.040;2024-03-23T15:09:05;9.25;;;3.28;;
28304;SDS011;15569;42.652;23.040;2024-03-23T15:11:33;3.85;;;2.97;;
28304;SDS011;15569;42.652;23.040;2024-03-23T15:13:58;3.40;;;2.70;;
28304;SDS011;15569;42.652;23.040;2024-03-23T15:16:23;3.92;;;2.75;;
28304;SDS011;15569;42.652;23.040;2024-03-23T15:18:49;4.72;;;2.88;;
28304;SDS011;15569;42.652;23.040;2024-03-23T15:21:14;5.22;;;2.97;;
28304;SDS011;15569;42.652;23.040;2024-03-23T15:23:44;7.30;;;3.70;;
28304;SDS011;15569;42.652;23.040;2024-03-23T15:26:10;9.35;;;3.63;;
28304;SDS011;15569;42.652;23.040;2024-03-23T15:28:35;6.13;;;3.03;;
28304;SDS011;15569;42.652;23.040;2024-03-23T15:31:27;7.57;;;4.47;;
28304;SDS011;15569;42.652;23.040;2024-03-23T15:33:52;5.05;;;3.33;;
28304;SDS011;15569;42.652;23.040;2024-03-23T15:36:18;3.17;;;2.65;;